Detalii statie MIRACOM [00001CFF]

Toti senzorii

Date Temperatura solului [C]Precipitatii [mm]Voltaj baterie [mV]Leaf Wetness [Min]HC Air temperature [C]HC Relative humidity [%]Punctul de roua [C]
medieminmaxsumaultimatimpmedieminmaxmediemediemin
2019-02-21 00:00:00 4.8 4.8 5 0 6992 6.02 5.77 6.19 0 0 0
2019-02-21 01:00:00 4.7 4.6 4.9 0 6982 6.01 5.9 6.12 0 0 0
2019-02-21 02:00:00 4.6 4.5 4.8 0 6972 5.59 5.35 5.97 0 0 0
2019-02-21 03:00:00 4.4 4.3 4.5 0 6972 5.66 5.53 5.83 0 0 0
2019-02-21 04:00:00 4.3 4.2 4.4 0 6962 5.01 4.26 5.73 0 0 0
2019-02-21 05:00:00 4 3.9 4.2 0 6962 3.26 2.61 4.66 0 0 0
2019-02-21 06:00:00 3.7 3.5 3.9 0 6952 3.99 3.56 4.47 0 0 0
2019-02-21 07:00:00 3.3 3.3 3.5 0 6962 2.07 1.17 3.86 0 0 0
2019-02-21 08:00:00 3.1 3 3.3 0 6972 2.53 1.42 3.99 0 0 0
2019-02-21 09:00:00 3.1 3.1 3.4 0 7088 4.56 3.69 5.53 0 0 0
2019-02-21 10:00:00 3.5 3.1 3.9 0 7324 7.08 5.79 8.43 0 0 0
2019-02-21 11:00:00 4.3 3.9 4.8 0 7352 9.67 8.73 11.34 0 0 0
2019-02-21 12:00:00 5.4 4.8 6 0 7352 11.15 10.25 12.06 0 0 0
2019-02-21 13:00:00 6.7 6.2 7.4 0 7352 12.36 11.82 12.98 0.23 0
2019-02-21 14:00:00 7.8 7.5 8.4 0 7352 12.85 12.26 13.63 2.78 -35.1 -42.3
2019-02-21 15:00:00 8.4 8.3 8.6 0 7186 12.38 11.71 13.23 1.77 -24.2 0
2019-02-21 16:00:00 8.3 8.2 8.5 0 7176 11.89 11.64 12.11 4.72 -28.4 -31.8
2019-02-21 17:00:00 7.9 7.7 8.2 0 7098 11.44 11 11.77 5.97 -26.5 -36.1
2019-02-21 18:00:00 7.4 7.2 7.7 0 7040 10.26 9.34 10.96 13.78 -16.6 -19.4
2019-02-21 19:00:00 7 6.7 7.3 0 7030 8.62 7.16 9.4 18.34 -14.5 -16.9
2019-02-21 20:00:00 6.3 6.1 6.7 0 7000 6.03 5.37 6.77 26.3 -12 -12.8
2019-02-21 21:00:00 5.8 5.7 6.1 0 6992 6.15 4.99 6.95 24.67 -12.8 -13.9
2019-02-21 22:00:00 5.3 5 5.7 0 6982 4.51 4.14 4.92 31.23 -11.2 -12
2019-02-21 23:00:00 4.7 4.6 5 0 6972 3.33 0.66 4.68 33.4 -11.4 -12.2
2019-02-22 00:00:00 4.2 4 4.5 0 6962 2.17 0.62 3.75 43.38 -9.1 -10.1
2019-02-22 01:00:00 3.7 3.6 4 0 6952 1.63 0.4 2.7 48.43 -8.2 -9.3
2019-02-22 02:00:00 3.3 3.2 3.6 0 6952 0.96 0.5 1.39 56.99 -6.6 -6.9
2019-02-22 03:00:00 3 2.8 3.2 0 6942 1.1 0.46 2.15 55.4 -6.8 -7.5
2019-02-22 04:00:00 2.8 2.7 2.9 0 6942 1.7 1.56 1.99 54.1 -6.6 -7.2
2019-02-22 05:00:00 2.6 2.5 2.8 0 6942 1.88 1.57 2.4 62.99 -4.4 -5.8
2019-02-22 06:00:00 2.5 2.4 2.7 0 6942 1.36 0.73 1.97 8.79 -1.1 0
2019-02-22 07:00:00 2.3 2.1 2.6 0 6942 1.4 0.94 1.73 0 0 0
2019-02-22 08:00:00 2.3 2.1 2.5 0 6962 0.69 0.38 1.12 0 0 0
2019-02-22 09:00:00 2.3 2.3 2.5 0 7088 2.67 1.28 3.91 0 0 0
2019-02-22 10:00:00 2.8 2.6 3.1 0 7226 5.32 4.3 5.98 0 0 0
2019-02-22 11:00:00 3.4 3.1 3.7 0 7294 6.5 5.91 6.96 0 0 0
2019-02-22 12:00:00 4 3.8 4.4 0 7304 6.55 5.83 7.05 0 0 0
2019-02-22 13:00:00 4.8 4.5 5.3 0 7246 5.62 5.47 5.76 0 0 0
2019-02-22 14:00:00 5.3 5.3 5.5 0 7332 5.41 5 5.92 0 0 0
2019-02-22 15:00:00 5.6 5.5 5.8 0.2 7186 5.58 5.31 5.79 0 0 0
2019-02-22 16:00:00 5.5 5.4 5.8 1.2 7098 3.76 1.15 5.34 0 0 0
2019-02-22 17:00:00 4.9 4.4 5.4 0.8 7070 0.65 -0.05 1.34 0 0 0
2019-02-22 18:00:00 3.9 3.5 4.3 0 7030 -0.16 -0.44 0 0 0 0
2019-02-22 19:00:00 3 2.6 3.4 0 7010 -0.88 -1.08 -0.57 0 0 0
2019-02-22 20:00:00 2.2 2 2.6 0.4 6992 -1.48 -1.94 -1.12 0 0 0
2019-02-22 21:00:00 1.8 1.7 2 0 6972 -1.97 -2.06 -1.91 0 0 0
2019-02-22 22:00:00 1.6 1.5 1.7 0.4 6962 -2.27 -2.37 -2.08 0 0 0
2019-02-22 23:00:00 1.3 1.2 1.5 0 6952 -2.53 -2.69 -2.35 0 0 0